Latest Coastal Weather Observations for Orbost

IDV60701

Issued at 5:51 am EST Wednesday 27 July 2016 (issued every 10 minutes, with the page automatically refreshed every 10 minutes)

About coastal observations | Map of coastal stations | Coastal observations for VIC | Marine services | Other Formats
Station Details ID: 084145 Name: ORBOST Lat: -37.69 Lon: 148.47 Height: 62.65 m
Data from the previous 72 hours. | See also: Recent months at Orbost
Date/Time
EST
Temp
°C
Wind Pressure Rain since
9am
mm
Weather Cloud Vis
km
Sea
Height
m
Swell
Dir  Spd
kts
Gust
kts
hPa Trend Height
m
Period
s
Dir
27/05:30am 5.3 N 4 5 1005.6 - 0.0 - - - - - - -
27/05:00am 3.1 CALM 0 2 1005.4 - 0.0 - - - - - - -
27/04:30am 2.4 CALM 0 2 1004.9 - 0.0 - - - - - - -
27/04:00am 2.6 W 1 2 1004.9 - 0.0 - - - - - - -
27/03:30am 3.9 CALM 0 1 1004.9 - 0.0 - - - - - - -
27/03:00am 6.3 N 3 4 1005.2 - 0.0 - - - - - - -
27/02:30am 4.4 NE 1 2 1005.8 - 0.0 - - - - - - -
27/02:00am 6.0 N 2 3 1006.1 - 0.0 - - - - - - -
27/01:30am 4.3 CALM 0 2 1006.5 - 0.0 - - - - - - -
27/01:00am 5.3 N 2 4 1006.6 - 0.0 - - - - - - -
27/12:30am 4.0 SW 2 3 1007.2 - 0.0 - - - - - - -
27/12:00am 7.7 N 4 6 1007.0 - 0.0 - - - - - - -
 
Date/Time
EST
Temp
°C
Wind Pressure Rain since
9am
mm
Weather Cloud Vis
km
Sea
Height
m
Swell
Dir  Spd
kts
Gust
kts
hPa Trend Height
m
Period
s
Dir
26/11:30pm 3.7 N 2 3 1007.6 - 0.0 - - - - - - -
26/11:00pm 4.4 ESE 2 3 1007.9 - 0.0 - - - - - - -
26/10:30pm 8.2 N 4 6 1007.6 - 0.0 - - - - - - -
26/10:00pm 7.5 NNE 4 6 1007.9 - 0.0 - - - - - - -
26/09:30pm 7.5 NNE 4 5 1008.2 - 0.0 - - - - - - -
26/09:00pm 7.4 NNE 3 5 1008.6 - 0.0 - - - - - - -
26/08:30pm 7.8 NE 4 5 1008.8 - 0.0 - - - - - - -
26/08:00pm 8.0 NE 3 5 1009.2 - 0.0 - - - - - - -
26/07:30pm 8.2 NNE 3 4 1009.4 - 0.0 - - - - - - -
26/07:00pm 9.1 NNE 2 3 1009.4 - 0.0 - - - - - - -
26/06:30pm 9.1 NNE 3 5 1009.5 - 0.0 - - - - - - -
26/06:00pm 9.7 N 4 5 1009.6 - 0.0 - - - - - - -
26/05:30pm 9.9 N 7 10 1009.4 - 0.0 - - - - - - -
26/05:00pm 11.5 NNW 9 12 1009.3 - 0.0 - - - - - - -
26/04:30pm 11.4 NNW 8 18 1009.2 - 0.0 - - - - - - -
26/04:00pm 12.4 NW 10 18 1009.3 - 0.0 - - - - - - -
26/03:30pm 12.4 NW 13 20 1009.2 - 0.0 - - - - - - -
26/03:00pm 12.9 WNW 12 18 1009.1 - 0.0 - - - - - - -
26/02:30pm 13.0 NW 15 25 1009.1 - 0.0 - - - - - - -
26/02:00pm 12.4 WNW 12 21 1009.3 - 0.0 - - - - - - -
26/01:30pm 12.7 WNW 11 19 1009.4 - 0.0 - - - - - - -
26/01:00pm 12.6 WNW 16 26 1009.7 - 0.0 - - - - - - -
26/12:30pm 11.9 NW 15 28 1009.9 - 0.0 - - - - - - -
26/12:03pm 12.2 NW 15 26 1010.2 - 0.0 - - - - - - -
26/12:00pm 12.3 NW 14 24 1010.3 - 0.0 - - - - - - -
26/11:30am 12.2 WNW 13 23 1010.7 - 0.0 - - - - - - -
26/11:00am 12.2 NW 11 18 1011.2 - 0.0 - - - - - - -
26/10:30am 11.8 NW 10 17 1011.5 - 0.0 - - - - - - -
26/10:00am 11.4 NW 10 16 1012.0 - 0.0 - - - - - - -
26/09:30am 10.7 NW 10 15 1011.8 - 0.0 - - - - - - -
26/09:00am 10.0 NNW 8 13 1011.6 - 0.0 - - - - - - -
26/08:30am 9.1 NNW 8 11 1011.3 - 0.0 - - - - - - -
26/08:00am 8.1 NNW 8 10 1011.1 - 0.0 - - - - - - -
26/07:30am 7.8 NW 6 11 1010.6 - 0.0 - - - - - - -
26/07:00am 8.1 NNW 7 10 1010.1 - 0.0 - - - - - - -
26/06:30am 8.0 NNW 8 10 1009.5 - 0.0 - - - - - - -
26/06:00am 7.8 NNW 7 10 1009.0 - 0.0 - - - - - - -
26/05:30am 7.9 NNW 9 11 1008.4 - 0.0 - - - - - - -
26/05:00am 7.8 NNW 8 11 1008.3 - 0.0 - - - - - - -
26/04:30am 7.6 NNW 8 13 1008.0 - 0.0 - - - - - - -
26/04:00am 5.9 NNW 3 5 1007.7 - 0.0 - - - - - - -
26/03:30am 5.7 NW 3 5 1007.5 - 0.0 - - - - - - -
26/03:00am 6.0 WNW 3 5 1007.5 - 0.0 - - - - - - -
26/02:30am 7.8 WNW 4 7 1007.1 - 0.0 - - - - - - -
26/02:00am 7.9 WNW 5 8 1007.0 - 0.0 - - - - - - -
26/01:30am 8.3 W 7 12 1006.6 - 0.0 - - - - - - -
26/01:00am 8.5 W 8 14 1006.4 - 0.0 - - - - - - -
26/12:30am 8.9 WSW 7 12 1006.2 - 0.0 - - - - - - -
26/12:00am 11.0 WNW 12 20 1005.5 - 0.0 - - - - - - -
 
Date/Time
EST
Temp
°C
Wind Pressure Rain since
9am
mm
Weather Cloud Vis
km
Sea
Height
m
Swell
Dir  Spd
kts
Gust
kts
hPa Trend Height
m
Period
s
Dir
25/11:30pm 12.4 WNW 11 21 1004.8 - 0.0 - - - - - - -
25/11:00pm 12.2 WNW 7 11 1004.0 - 0.0 - - - - - - -
25/10:30pm 12.3 NW 10 19 1003.4 - 0.0 - - - - - - -
25/10:00pm 12.5 NNW 14 20 1002.7 - 0.0 - - - - - - -
25/09:30pm 12.3 NNW 13 22 1003.0 - 0.0 - - - - - - -
25/09:00pm 12.5 NNW 12 22 1003.1 - 0.0 - - - - - - -
25/08:30pm 12.3 NNW 8 13 1003.5 - 0.0 - - - - - - -
25/08:00pm 12.4 NNW 8 13 1003.7 - 0.0 - - - - - - -
25/07:30pm 12.3 NW 7 10 1004.1 - 0.0 - - - - - - -
25/07:00pm 12.2 NW 8 11 1004.2 - 0.0 - - - - - - -
25/06:30pm 11.6 NNW 7 10 1004.3 - 0.0 - - - - - - -
25/06:00pm 12.2 NNW 8 12 1004.1 - 0.0 - - - - - - -
25/05:30pm 11.7 N 6 10 1003.9 - 0.0 - - - - - - -
25/05:00pm 12.9 NNW 8 14 1004.1 - 0.0 - - - - - - -
25/04:30pm 13.6 NNW 6 10 1004.6 - 0.0 - - - - - - -
25/04:00pm 14.5 NNW 7 13 1004.3 - 0.0 - - - - - - -
25/03:30pm 14.8 NW 11 17 1004.8 - 0.0 - - - - - - -
25/03:00pm 15.0 NNW 13 21 1004.9 - 0.0 - - - - - - -
25/02:30pm 15.3 NW 12 20 1005.1 - 0.0 - - - - - - -
25/02:00pm 15.0 NW 13 23 1005.4 - 0.0 - - - - - - -
25/01:30pm 14.8 NW 16 25 1005.7 - 0.0 - - - - - - -
25/01:00pm 15.3 NW 11 19 1006.0 - 0.0 - - - - - - -
25/12:30pm 14.9 NW 12 19 1006.3 - 0.0 - - - - - - -
25/12:00pm 14.6 NW 10 15 1006.7 - 0.0 - - - - - - -
25/11:30am 14.0 NW 9 16 1007.2 - 0.0 - - - - - - -
25/11:00am 13.3 NW 7 12 1007.4 - 0.0 - - - - - - -
25/10:30am 12.2 NW 9 13 1007.6 - 0.0 - - - - - - -
25/10:00am 11.1 NNW 10 15 1007.8 - 0.0 - - - - - - -
25/09:30am 10.2 NNW 5 8 1007.9 - 0.0 - - - - - - -
25/09:00am 8.7 NNW 5 7 1007.8 - 0.0 - - - - - - -
25/08:30am 6.9 NNW 4 5 1007.7 - 0.0 - - - - - - -
25/08:00am 4.6 NW 3 5 1007.6 - 0.0 - - - - - - -
25/07:30am 4.1 NNW 3 4 1007.3 - 0.0 - - - - - - -
25/07:00am 5.1 N 4 6 1006.8 - 0.0 - - - - - - -
25/06:30am 5.0 N 5 6 1006.5 - 0.0 - - - - - - -
25/06:00am 5.8 N 5 6 1006.4 - 0.0 - - - - - - -
25/05:30am 5.9 NNW 5 6 1006.2 - 0.0 - - - - - - -
25/05:00am 5.8 NNW 4 6 1005.9 - 0.0 - - - - - - -
25/04:30am 7.1 NNW 6 7 1005.9 - 0.0 - - - - - - -
25/04:00am 6.3 NNW 4 5 1005.7 - 0.0 - - - - - - -
25/03:30am 5.9 NNW 5 7 1005.3 - 0.0 - - - - - - -
25/03:00am 4.7 NW 2 3 1005.5 - 0.0 - - - - - - -
25/02:30am 4.5 NW 2 4 1005.5 - 0.0 - - - - - - -
25/02:00am 4.2 W 2 3 1005.4 - 0.0 - - - - - - -
25/01:30am 4.4 NW 1 1 1005.4 - 0.0 - - - - - - -
25/01:00am 4.6 NW 1 2 1005.5 - 0.0 - - - - - - -
25/12:30am 5.5 CALM 0 0 1005.7 - 0.0 - - - - - - -
25/12:00am 5.2 CALM 0 0 1006.0 - 0.0 - - - - - - -
 
Date/Time
EST
Temp
°C
Wind Pressure Rain since
9am
mm
Weather Cloud Vis
km
Sea
Height
m
Swell
Dir  Spd
kts
Gust
kts
hPa Trend Height
m
Period
s
Dir
24/11:30pm 5.0 CALM 0 0 1006.1 - 0.0 - - - - - - -
24/11:00pm 5.8 N 1 1 1006.3 - 0.0 - - - - - - -
24/10:30pm 5.9 NNW 1 4 1006.6 - 0.0 - - - - - - -
24/10:00pm 8.1 NNE 4 6 1006.7 - 0.0 - - - - - - -
24/09:30pm 7.3 N 2 3 1006.9 - 0.0 - - - - - - -
24/09:00pm 8.1 NNE 4 6 1007.1 - 0.0 - - - - - - -
24/08:30pm 7.7 N 4 5 1007.5 - 0.0 - - - - - - -
24/08:00pm 7.5 N 4 7 1007.7 - 0.0 - - - - - - -
24/07:30pm 7.5 NNW 3 5 1007.9 - 0.0 - - - - - - -
24/07:00pm 8.4 NNW 4 6 1008.1 - 0.0 - - - - - - -
24/06:30pm 8.0 N 4 5 1007.9 - 0.0 - - - - - - -
24/06:00pm 8.9 N 4 5 1007.6 - 0.0 - - - - - - -
24/05:30pm 9.6 WNW 2 2 1007.6 - 0.0 - - - - - - -
24/05:00pm 9.8 NW 1 2 1007.6 - 0.0 - - - - - - -
24/04:30pm 11.6 NW 4 8 1007.5 - 0.0 - - - - - - -
24/04:00pm 12.3 NW 4 9 1007.7 - 0.0 - - - - - - -
24/03:30pm 12.3 N 3 5 1007.8 - 0.0 - - - - - - -
24/03:00pm 11.5 NE 2 4 1008.1 - 0.0 - - - - - - -
24/02:30pm 11.4 N 3 5 1008.3 - 0.0 - - - - - - -
24/02:00pm 11.4 NNW 8 11 1008.7 - 0.0 - - - - - - -
24/01:30pm 12.4 NNW 9 13 1008.9 - 0.0 - - - - - - -
24/01:00pm 12.6 NNW 9 15 1009.5 - 0.0 - - - - - - -
24/12:30pm 11.3 NNW 9 12 1010.1 - 0.0 - - - - - - -
24/12:00pm 10.3 NNW 9 14 1010.6 - 0.0 - - - - - - -
24/11:30am 11.8 NW 8 13 1011.2 - 0.0 - - - - - - -
24/11:00am 11.5 NNW 7 13 1011.6 - 0.0 - - - - - - -
24/10:30am 11.2 NNW 6 11 1011.8 - 0.0 - - - - - - -
24/10:00am 9.9 WNW 2 3 1011.9 - 0.0 - - - - - - -
24/09:30am 8.6 NW 3 4 1012.2 - 0.0 - - - - - - -
24/09:00am 7.7 NNW 4 5 1012.3 - 0.8 - - - - - - -
24/08:30am 5.0 NNW 2 3 1012.1 - 0.8 - - - - - - -
24/08:00am 3.9 NNW 2 3 1011.8 - 0.8 - - - - - - -
24/07:30am 3.8 N 3 3 1011.5 - 0.8 - - - - - - -
24/07:00am 3.5 N 4 5 1011.6 - 0.8 - - - - - - -
24/06:30am 4.1 N 4 5 1011.5 - 0.8 - - - - - - -
24/06:00am 4.1 N 4 4 1011.5 - 0.8 - - - - - - -

Other Formats:

Comma delimited format used in spreadsheet applications
http://www.bom.gov.au/fwo/IDV60701/IDV60701.95918.axf

JavaScript Object Notation format (JSON) in row-major order
http://www.bom.gov.au/fwo/IDV60701/IDV60701.95918.json